首页
METAR-TAF:

METAR-TAF

机场 :

金邊國際機場

金边, 柬埔寨

纬度: 11-33N, 经度: 104-51E, 海拔: 10米

当前天气观测

该预报发布于32分钟前的08:30 UTC
风速6节,风向西,在西南西北之间变化
温度 31°C
湿度 71%
气压 1005 hPa
能见度10公里或以上
散云层高于1500英尺
少量云层高于1700英尺, 积雨云.
多云层高于4000英尺

METAR: VDPP 200830Z 27006KT 230V310 9999 SCT015 FEW017CB BKN040 31/25 Q1005 RMK CB:N

时间: 16:02 (09:02 UTC)

预报

该预报发布于4小时和2分钟前的05:00 UTC
预报有效从20日的 06点(UTC)到 20日的 24点(UTC)
风速10节,风向西南
能见度10公里或以上
散云层高于1700英尺
散云层高于4000英尺
短暂存在
从 20日的 07点(UTC)到 20日的 12点(UTC)
能見度: 5000
散云层高于1500英尺
少量云层高于1700英尺, 积雨云.
多云层高于4000英尺
雷暴, 雨,

TAF: VDPP 200500Z 2006/2024 22010KT 9999 SCT017 SCT040 TEMPO 2007/2012 5000 TSRA SCT015 FEW017CB BKN040

超过4000个机场的气象观测和天气预报(METAR&TAF报告)。

可查询的气象台以黄色和红色小点在地图上表示。

将鼠标移到小点上方,可查看气象台名称。

然后点击查看天气观测和预报。

如需切换地图:点击带黑十字的绿色按钮放大地图;点击带横线的绿色按钮缩小地图;或者点击绿色箭头查看邻近地区的地图。


METAR-TAF: